Glendon, Canada
Current Conditions -  °F | °C
As of 11:00 AM on Thursday 27 Nov 2014 (Local Time) from CYOD Reporting Station
Light Snow Light Snow  
Wind Chill: -14°   Ceiling: 1200
Heat Index:   Visibility: 0.62mi
Dew Point:   Wind: 17mph
Humidity: 85%   Direction: 50°NE
Pressure: 30.16"   Gusts: 24mph
Location:  54.25°N, 111.15°W
Report Text: CYOD 271800Z 05015G21KT 5/8SM R31R/P6000FT/N -SN OVC012 M15/M17 A3016 RMK SN7SF1 SUN DIMLY VISBL SLP261
Loading
Personal Weather Stations






























Interactive Weather Map New forecast layout! Learn more

10-Day Weather Forecast

Advertisements
Track Severe Weather on mobile